createdAt,value
2019-04-25T00:00:48.092Z,61.43
2019-04-25T00:03:22.189Z,63.68
2019-04-25T00:05:53.646Z,65.60
2019-04-25T00:08:24.988Z,72.30
2019-04-25T00:10:56.259Z,73.37
2019-04-25T00:13:28.274Z,80.90
2019-04-25T00:15:59.431Z,80.60
2019-04-25T00:18:31.897Z,84.03
2019-04-25T00:21:13.864Z,85.45
2019-04-25T00:23:47.120Z,76.92
2019-04-25T00:26:26.163Z,85.90
2019-04-25T00:28:57.328Z,85.53
2019-04-25T00:31:28.559Z,86.57
2019-04-25T00:33:59.777Z,85.17
2019-04-25T00:36:31.877Z,98.52
2019-04-25T00:39:06.708Z,93.05
2019-04-25T00:41:38.495Z,97.80
2019-04-25T00:44:09.742Z,105.03
2019-04-25T00:46:44.815Z,98.05
2019-04-25T00:49:13.811Z,102.02
2019-04-25T00:51:44.968Z,90.10
2019-04-25T00:54:16.127Z,102.57
2019-04-25T00:56:48.277Z,102.78
2019-04-25T00:59:24.324Z,98.20
2019-04-25T01:02:07.626Z,107.17
2019-04-25T01:04:38.972Z,104.50
2019-04-25T01:07:10.206Z,103.95
2019-04-25T01:09:42.298Z,109.27
2019-04-25T01:12:16.919Z,104.40
2019-04-25T01:14:48.401Z,112.40
2019-04-25T01:17:21.226Z,113.57
2019-04-25T01:19:54.818Z,115.10
2019-04-25T01:22:25.572Z,111.23
2019-04-25T01:24:56.845Z,108.27
2019-04-25T01:27:28.012Z,113.97
2019-04-25T01:29:59.408Z,99.32
2019-04-25T01:32:35.204Z,104.53
2019-04-25T01:35:25.773Z,98.27
2019-04-25T01:38:10.610Z,96.20
2019-04-25T01:40:44.470Z,94.47
2019-04-25T01:43:17.304Z,92.95
2019-04-25T01:45:48.568Z,89.40
2019-04-25T01:48:19.772Z,97.17
2019-04-25T01:50:50.904Z,88.67
2019-04-25T01:53:22.150Z,88.00
2019-04-25T01:56:00.673Z,90.97
2019-04-25T01:58:26.170Z,82.87
2019-04-25T02:00:57.445Z,81.15
2019-04-25T02:03:28.573Z,79.33
2019-04-25T02:05:59.848Z,76.35
2019-04-25T02:08:31.059Z,72.70
2019-04-25T02:11:08.011Z,75.03
2019-04-25T02:13:39.413Z,65.20
2019-04-25T02:16:11.449Z,66.53
2019-04-25T02:18:43.546Z,61.30
2019-04-25T02:21:14.863Z,60.13
2019-04-25T02:23:46.068Z,55.35
2019-04-25T02:26:18.669Z,55.10
2019-04-25T02:28:49.990Z,53.80
2019-04-25T02:31:21.160Z,55.08
2019-04-25T02:33:53.617Z,56.15
2019-04-25T02:36:25.235Z,53.52
2019-04-25T02:38:59.576Z,57.00
2019-04-25T02:41:29.317Z,57.33
2019-04-25T02:44:05.472Z,56.37
2019-04-25T02:46:37.990Z,55.63
2019-04-25T02:49:35.396Z,54.35
2019-04-25T02:52:08.547Z,59.90
2019-04-25T02:54:38.539Z,70.40
2019-04-25T02:57:09.755Z,72.70
2019-04-25T02:59:40.923Z,68.53
2019-04-25T03:02:12.115Z,66.95
2019-04-25T03:04:44.525Z,71.65
2019-04-25T03:07:17.510Z,69.93
2019-04-25T03:09:49.060Z,75.52
2019-04-25T03:12:32.378Z,83.65
2019-04-25T03:14:55.002Z,87.33
2019-04-25T03:17:25.906Z,71.30
2019-04-25T03:19:59.872Z,61.65
2019-04-25T03:22:34.530Z,57.93
2019-04-25T03:25:11.616Z,48.78
2019-04-25T03:27:40.011Z,48.52
2019-04-25T03:30:13.927Z,51.90
2019-04-25T03:32:45.055Z,52.15
2019-04-25T03:35:16.747Z,50.65
2019-04-25T03:37:47.939Z,51.90
2019-04-25T03:40:19.073Z,54.50
2019-04-25T03:42:50.191Z,58.00
2019-04-25T03:45:21.358Z,59.17
2019-04-25T03:47:53.193Z,63.63
2019-04-25T03:50:24.647Z,64.42
2019-04-25T03:52:55.875Z,74.25
2019-04-25T03:55:27.070Z,72.45
2019-04-25T03:57:58.215Z,65.33
2019-04-25T04:00:29.381Z,57.15
2019-04-25T04:03:00.772Z,56.03
2019-04-25T04:05:31.995Z,52.00
2019-04-25T04:08:04.472Z,53.63
2019-04-25T04:10:36.189Z,45.12
2019-04-25T04:13:08.462Z,48.95
2019-04-25T04:15:39.894Z,53.33
2019-04-25T04:18:14.466Z,53.17
2019-04-25T04:20:48.172Z,44.75
2019-04-25T04:23:21.027Z,51.30
2019-04-25T04:25:53.270Z,50.20
2019-04-25T04:28:25.154Z,40.38
2019-04-25T04:30:56.361Z,36.28
2019-04-25T04:33:32.114Z,32.83
2019-04-25T04:36:01.985Z,28.55
2019-04-25T04:38:34.868Z,26.17
2019-04-25T04:41:06.257Z,32.50
2019-04-25T04:43:37.861Z,29.40
2019-04-25T04:46:10.108Z,30.50
2019-04-25T04:48:41.459Z,31.77
2019-04-25T04:51:14.569Z,29.70
2019-04-25T04:53:45.450Z,29.00
2019-04-25T04:56:17.373Z,32.90
2019-04-25T04:58:48.883Z,31.40
2019-04-25T05:01:21.699Z,26.40
2019-04-25T05:03:54.483Z,32.70
2019-04-25T05:06:27.315Z,25.77
2019-04-25T05:09:00.235Z,29.65
2019-04-25T05:11:31.535Z,26.20
2019-04-25T05:14:04.028Z,25.02
2019-04-25T05:16:35.236Z,30.65
2019-04-25T05:19:06.427Z,29.32
2019-04-25T05:21:37.641Z,27.93
2019-04-25T05:24:08.795Z,30.40
2019-04-25T05:26:40.025Z,29.95
2019-04-25T05:29:14.011Z,36.05
2019-04-25T05:31:46.635Z,26.68
2019-04-25T05:34:18.307Z,29.52
2019-04-25T05:36:49.698Z,29.63
2019-04-25T05:39:20.818Z,28.10
2019-04-25T05:41:54.016Z,29.12
2019-04-25T05:44:27.339Z,26.27
2019-04-25T05:46:58.455Z,31.47
2019-04-25T05:49:29.648Z,32.95
2019-04-25T05:52:00.814Z,42.78
2019-04-25T05:54:32.074Z,32.40
2019-04-25T05:57:03.706Z,33.03
2019-04-25T05:59:35.189Z,28.38
2019-04-25T06:02:06.430Z,27.40
2019-04-25T06:04:37.599Z,34.15
2019-04-25T06:07:08.799Z,33.85
2019-04-25T06:09:41.572Z,32.05
2019-04-25T06:12:26.428Z,31.23
2019-04-25T06:14:57.772Z,33.13
2019-04-25T06:17:34.298Z,33.67
2019-04-25T06:20:08.632Z,33.20
2019-04-25T06:22:50.256Z,34.43
2019-04-25T06:25:27.066Z,32.60
2019-04-25T06:28:03.817Z,28.80
2019-04-25T06:30:35.548Z,32.10
2019-04-25T06:33:06.740Z,36.48
2019-04-25T06:35:37.972Z,41.00
2019-04-25T06:38:09.200Z,35.25
2019-04-25T06:40:40.457Z,39.80
2019-04-25T06:43:13.347Z,38.58
2019-04-25T06:45:56.425Z,30.35
2019-04-25T06:48:35.166Z,34.38
2019-04-25T06:51:06.460Z,34.50
2019-04-25T06:53:37.689Z,31.45
2019-04-25T06:56:08.972Z,32.45
2019-04-25T06:58:40.258Z,28.42
2019-04-25T07:01:13.313Z,32.88
2019-04-25T07:03:45.201Z,36.90
2019-04-25T07:06:16.525Z,39.18
2019-04-25T07:08:47.748Z,32.10
2019-04-25T07:11:18.936Z,36.10
2019-04-25T07:13:50.363Z,37.40
2019-04-25T07:16:23.166Z,32.53
2019-04-25T07:18:54.380Z,34.40
2019-04-25T07:21:25.930Z,35.98
2019-04-25T07:23:57.320Z,38.30
2019-04-25T07:26:45.036Z,34.95
2019-04-25T07:29:34.674Z,35.13
2019-04-25T07:32:24.627Z,37.05
2019-04-25T07:34:56.576Z,33.48
2019-04-25T07:37:27.792Z,37.63
2019-04-25T07:39:59.039Z,38.15
2019-04-25T07:42:30.224Z,37.15
2019-04-25T07:45:01.513Z,36.28
2019-04-25T07:47:34.861Z,38.20
2019-04-25T07:50:07.389Z,37.40
2019-04-25T07:52:38.633Z,35.30
2019-04-25T07:55:09.926Z,36.30
2019-04-25T07:57:42.110Z,31.30
2019-04-25T08:00:15.777Z,33.70
2019-04-25T08:02:47.120Z,35.75
2019-04-25T08:05:20.101Z,33.00
2019-04-25T08:07:51.532Z,37.73
2019-04-25T08:10:23.941Z,36.17
2019-04-25T08:12:55.252Z,31.60
2019-04-25T08:15:31.797Z,35.70
2019-04-25T08:18:04.808Z,34.05
2019-04-25T08:20:37.060Z,37.15
2019-04-25T08:23:08.289Z,33.88
2019-04-25T08:25:40.567Z,36.38
2019-04-25T08:28:13.737Z,31.02
2019-04-25T08:30:45.161Z,30.23
2019-04-25T08:33:16.460Z,32.28
2019-04-25T08:36:03.380Z,33.20
2019-04-25T08:38:20.718Z,37.80
2019-04-25T08:40:51.859Z,33.88
2019-04-25T08:43:24.316Z,33.53
2019-04-25T08:46:30.532Z,35.30
2019-04-25T08:49:21.229Z,30.23
2019-04-25T08:51:55.723Z,33.70
2019-04-25T08:54:47.387Z,33.88
2019-04-25T08:57:25.623Z,30.73
2019-04-25T09:00:01.252Z,27.55
2019-04-25T09:02:38.898Z,27.52
2019-04-25T09:05:19.592Z,28.95
2019-04-25T09:07:50.938Z,29.23
2019-04-25T09:10:23.630Z,27.62
2019-04-25T09:12:54.950Z,31.30
2019-04-25T09:15:26.153Z,24.32
2019-04-25T09:17:57.559Z,27.10
2019-04-25T09:20:28.760Z,25.97
2019-04-25T09:22:59.946Z,23.25
2019-04-25T09:25:31.164Z,22.40
2019-04-25T09:28:04.333Z,23.92
2019-04-25T09:30:37.123Z,21.27
2019-04-25T09:33:08.816Z,19.48
2019-04-25T09:35:40.066Z,22.37
2019-04-25T09:38:11.258Z,25.35
2019-04-25T09:40:44.153Z,23.50
2019-04-25T09:43:15.507Z,21.82
2019-04-25T09:45:50.980Z,22.55
2019-04-25T09:48:23.793Z,22.45
2019-04-25T09:50:59.611Z,22.65
2019-04-25T09:53:30.959Z,20.50
2019-04-25T09:56:09.555Z,23.15
2019-04-25T09:58:48.324Z,21.33
2019-04-25T10:01:18.092Z,17.75
2019-04-25T10:03:49.211Z,16.62
2019-04-25T10:06:20.711Z,17.07
2019-04-25T10:08:52.032Z,16.80
2019-04-25T10:37:54.966Z,19.63
2019-04-25T10:49:59.154Z,19.40
2019-04-25T10:52:30.114Z,19.42
2019-04-25T10:55:04.233Z,21.80
2019-04-25T10:57:35.483Z,21.83
2019-04-25T11:00:10.711Z,19.10
2019-04-25T11:02:42.384Z,21.63
2019-04-25T11:05:16.526Z,19.25
2019-04-25T11:07:48.625Z,19.82
2019-04-25T11:10:20.241Z,21.20
2019-04-25T11:12:51.463Z,17.23
2019-04-25T11:15:24.695Z,18.23
2019-04-25T11:17:55.904Z,19.27
2019-04-25T11:20:31.414Z,18.27
2019-04-25T11:23:03.763Z,18.40
2019-04-25T11:25:35.287Z,19.07
2019-04-25T11:28:07.602Z,18.20
2019-04-25T11:30:38.828Z,20.32
2019-04-25T11:33:10.098Z,19.65
2019-04-25T11:35:41.344Z,21.95
2019-04-25T11:38:14.083Z,19.80
2019-04-25T11:40:49.303Z,22.70
2019-04-25T11:43:19.813Z,23.17
2019-04-25T11:45:54.095Z,23.20
2019-04-25T11:48:26.070Z,23.87
2019-04-25T11:50:58.030Z,17.75
2019-04-25T11:53:29.132Z,21.90
2019-04-25T11:56:03.700Z,21.27
2019-04-25T11:58:35.097Z,22.82
2019-04-25T12:01:07.471Z,21.10
2019-04-25T12:03:46.242Z,21.62
2019-04-25T12:06:16.042Z,21.73
2019-04-25T12:08:47.721Z,22.30
2019-04-25T12:11:19.302Z,20.17
2019-04-25T12:13:51.660Z,18.98
2019-04-25T12:16:24.717Z,18.80
2019-04-25T12:18:56.496Z,22.75
2019-04-25T12:21:29.990Z,23.40
2019-04-25T12:24:03.671Z,22.00
2019-04-25T12:26:33.967Z,19.65
2019-04-25T12:29:08.308Z,25.45
2019-04-25T12:31:39.506Z,23.90
2019-04-25T12:34:10.727Z,22.33
2019-04-25T12:36:42.067Z,22.52
2019-04-25T12:39:14.113Z,24.57
2019-04-25T12:41:47.059Z,21.90
2019-04-25T12:44:37.206Z,18.85
2019-04-25T12:47:13.627Z,23.18
2019-04-25T12:49:46.619Z,23.30
2019-04-25T12:52:18.133Z,26.40
2019-04-25T12:54:51.070Z,22.17
2019-04-25T12:57:24.103Z,23.02
2019-04-25T12:59:55.521Z,27.15
2019-04-25T13:02:27.113Z,24.23
2019-04-25T13:04:58.235Z,28.32
2019-04-25T13:07:29.996Z,24.90
2019-04-25T13:10:01.361Z,20.20
2019-04-25T13:12:33.321Z,24.85
2019-04-25T13:15:05.605Z,20.80
2019-04-25T13:17:38.054Z,21.20
2019-04-25T13:20:09.873Z,22.87
2019-04-25T13:22:42.947Z,20.23
2019-04-25T13:25:16.103Z,22.15
2019-04-25T13:27:52.068Z,30.00
2019-04-25T13:30:24.933Z,22.27
2019-04-25T13:32:57.919Z,21.70
2019-04-25T13:35:36.566Z,24.37
2019-04-25T13:38:08.628Z,26.65
2019-04-25T13:40:40.166Z,22.85
2019-04-25T13:43:12.537Z,25.80
2019-04-25T13:45:44.086Z,28.05
2019-04-25T13:48:15.438Z,28.12
2019-04-25T13:50:46.618Z,22.98
2019-04-25T13:53:18.150Z,18.97
2019-04-25T13:55:49.983Z,20.30
2019-04-25T13:58:22.264Z,22.52
2019-04-25T14:00:53.605Z,21.15
2019-04-25T14:03:25.167Z,21.35
2019-04-25T14:05:56.722Z,20.30
2019-04-25T14:08:28.275Z,20.57
2019-04-25T14:10:59.895Z,22.30
2019-04-25T14:13:32.199Z,18.98
2019-04-25T14:16:25.374Z,23.02
2019-04-25T14:19:14.829Z,24.25
2019-04-25T14:21:47.823Z,19.90
2019-04-25T14:24:20.650Z,22.63
2019-04-25T14:26:51.950Z,21.27
2019-04-25T14:29:23.777Z,20.25
2019-04-25T14:31:55.011Z,21.80
2019-04-25T14:34:26.625Z,21.07
2019-04-25T14:36:58.359Z,24.63
2019-04-25T14:39:30.221Z,17.83
2019-04-25T14:42:02.185Z,23.87
2019-04-25T14:44:33.850Z,20.05
2019-04-25T14:47:05.401Z,19.10
2019-04-25T14:49:36.751Z,20.90
2019-04-25T14:52:07.881Z,19.07
2019-04-25T14:54:40.961Z,22.40
2019-04-25T14:57:16.531Z,19.45
2019-04-25T14:59:47.860Z,21.55
2019-04-25T15:02:20.050Z,21.48
2019-04-25T15:04:51.396Z,18.67
2019-04-25T15:07:24.188Z,29.75
2019-04-25T15:09:55.940Z,20.23
2019-04-25T15:12:27.090Z,25.65
2019-04-25T15:14:58.890Z,22.03
2019-04-25T15:17:38.285Z,20.27
2019-04-25T15:20:05.730Z,25.43
2019-04-25T15:22:37.188Z,20.57
2019-04-25T15:25:09.043Z,18.27
2019-04-25T15:27:40.302Z,24.45
2019-04-25T15:30:14.312Z,23.57
2019-04-25T15:32:45.859Z,26.43
2019-04-25T15:35:18.849Z,31.93
2019-04-25T15:37:54.830Z,38.53
2019-04-25T15:40:36.707Z,29.18
2019-04-25T15:43:26.397Z,30.33
2019-04-25T15:46:03.890Z,50.98
2019-04-25T15:48:37.778Z,87.30
2019-04-25T15:51:10.667Z,43.78
2019-04-25T15:53:42.380Z,46.08
2019-04-25T15:56:13.912Z,37.50
2019-04-25T15:58:45.426Z,42.67
2019-04-25T16:01:17.699Z,38.08
2019-04-25T16:03:49.457Z,35.43
2019-04-25T16:06:21.019Z,44.00
2019-04-25T16:08:52.826Z,40.73
2019-04-25T16:11:24.420Z,41.63
2019-04-25T16:13:55.635Z,37.25
2019-04-25T16:16:28.209Z,44.50
2019-04-25T16:19:00.837Z,42.58
2019-04-25T16:21:32.069Z,38.02
2019-04-25T16:24:03.728Z,40.05
2019-04-25T16:26:35.675Z,44.20
2019-04-25T16:29:07.047Z,50.52
2019-04-25T16:31:38.610Z,51.93
2019-04-25T16:34:10.241Z,52.30
2019-04-25T16:36:41.916Z,45.60
2019-04-25T16:39:17.564Z,47.78
2019-04-25T16:41:50.547Z,47.78
2019-04-25T16:44:22.712Z,51.53
2019-04-25T16:46:54.061Z,55.88
2019-04-25T16:49:25.819Z,53.10
2019-04-25T16:51:57.405Z,51.63
2019-04-25T16:54:29.294Z,54.85
2019-04-25T16:57:02.121Z,61.80
2019-04-25T16:59:35.562Z,54.03
2019-04-25T17:02:08.503Z,53.20
2019-04-25T17:04:39.858Z,51.73
2019-04-25T17:07:11.825Z,52.93
2019-04-25T17:09:43.669Z,48.50
2019-04-25T17:12:16.047Z,51.70
2019-04-25T17:14:57.956Z,55.10
2019-04-25T17:17:48.956Z,57.70
2019-04-25T17:20:25.014Z,61.58
2019-04-25T17:22:56.668Z,53.38
2019-04-25T17:25:27.914Z,60.98
2019-04-25T17:27:59.357Z,57.93
2019-04-25T17:30:32.623Z,58.23
2019-04-25T17:33:11.856Z,68.22
2019-04-25T17:35:47.705Z,63.35
2019-04-25T17:38:36.104Z,51.53
2019-04-25T17:41:07.648Z,55.87
2019-04-25T17:43:39.309Z,55.67
2019-04-25T17:46:12.496Z,60.03
2019-04-25T17:48:43.742Z,60.50
2019-04-25T17:51:16.654Z,67.17
2019-04-25T17:53:49.820Z,61.37
2019-04-25T17:56:21.576Z,53.65
2019-04-25T17:58:52.927Z,51.20
2019-04-25T18:01:24.587Z,44.48
2019-04-25T18:03:55.729Z,46.05
2019-04-25T18:06:27.383Z,42.33
2019-04-25T18:08:58.510Z,44.00
2019-04-25T18:11:29.917Z,48.28
2019-04-25T18:14:01.838Z,43.35
2019-04-25T18:16:36.022Z,40.38
2019-04-25T18:19:09.449Z,36.00
2019-04-25T18:21:40.798Z,39.45
2019-04-25T18:24:16.135Z,35.13
2019-04-25T18:27:01.110Z,37.95
2019-04-25T18:29:32.282Z,38.23
2019-04-25T18:32:03.804Z,39.27
2019-04-25T18:34:37.459Z,39.80
2019-04-25T18:37:13.551Z,41.50
2019-04-25T18:40:02.223Z,35.63
2019-04-25T18:42:54.871Z,33.15
2019-04-25T18:45:27.858Z,34.73
2019-04-25T18:47:59.210Z,34.83
2019-04-25T18:50:32.357Z,42.38
2019-04-25T18:53:23.820Z,37.80
2019-04-25T18:55:56.494Z,36.83
2019-04-25T18:58:35.892Z,43.05
2019-04-25T19:01:21.001Z,39.83
2019-04-25T19:04:09.257Z,42.45
2019-04-25T19:06:52.755Z,43.85
2019-04-25T19:09:13.585Z,38.67
2019-04-25T19:11:45.178Z,42.70
2019-04-25T19:14:17.681Z,38.80
2019-04-25T19:16:49.123Z,35.23
2019-04-25T19:19:20.430Z,42.95
2019-04-25T19:21:52.071Z,42.27
2019-04-25T19:24:23.196Z,36.25
2019-04-25T19:26:54.771Z,40.10
2019-04-25T19:29:26.118Z,37.65
2019-04-25T19:31:57.356Z,44.23
2019-04-25T19:34:28.907Z,37.80
2019-04-25T19:37:00.319Z,39.48
2019-04-25T19:39:33.346Z,35.88
2019-04-25T19:42:12.282Z,31.37
2019-04-25T19:44:43.426Z,34.58
2019-04-25T19:47:15.892Z,31.75
2019-04-25T19:49:47.671Z,32.13
2019-04-25T19:52:20.342Z,29.77
2019-04-25T19:54:51.976Z,33.53
2019-04-25T19:57:23.250Z,29.15
2019-04-25T19:59:54.403Z,32.63
2019-04-25T20:02:27.787Z,28.67
2019-04-25T20:05:06.538Z,31.23
2019-04-25T20:07:46.543Z,28.60
2019-04-25T20:10:23.036Z,31.80
2019-04-25T20:12:55.132Z,26.30
2019-04-25T20:15:27.241Z,29.75
2019-04-25T20:17:58.813Z,30.32
2019-04-25T20:20:30.234Z,29.98
2019-04-25T20:23:02.126Z,27.00
2019-04-25T20:25:33.475Z,26.37
2019-04-25T20:28:04.821Z,32.03
2019-04-25T20:30:36.480Z,25.20
2019-04-25T20:33:07.955Z,25.82
2019-04-25T20:35:41.522Z,25.30
2019-04-25T20:38:12.879Z,23.77
2019-04-25T20:40:45.174Z,24.15
2019-04-25T20:43:17.422Z,23.67
2019-04-25T20:45:50.056Z,23.73
2019-04-25T20:48:21.584Z,23.47
2019-04-25T20:50:53.195Z,23.30
2019-04-25T20:53:25.067Z,22.82
2019-04-25T20:55:57.084Z,24.27
2019-04-25T20:58:28.479Z,23.10
2019-04-25T21:01:01.777Z,24.15
2019-04-25T21:03:32.991Z,29.18
2019-04-25T21:06:06.317Z,31.60
2019-04-25T21:08:37.756Z,31.05
2019-04-25T21:11:09.315Z,30.10
2019-04-25T21:13:45.374Z,36.43
2019-04-25T21:16:34.853Z,38.53
2019-04-25T21:19:07.628Z,37.28
2019-04-25T21:21:38.985Z,40.73
2019-04-25T21:24:11.424Z,43.85
2019-04-25T21:26:42.923Z,50.13
2019-04-25T21:29:15.643Z,48.35
2019-04-25T21:31:47.467Z,53.52
2019-04-25T21:34:25.777Z,52.25
2019-04-25T21:36:53.310Z,59.45
2019-04-25T21:39:29.517Z,50.98
2019-04-25T21:42:02.888Z,57.60
2019-04-25T21:44:34.324Z,61.92
2019-04-25T21:47:05.775Z,64.57
2019-04-25T21:49:37.543Z,58.70
2019-04-25T21:52:08.655Z,60.50
2019-04-25T21:54:40.541Z,59.60
2019-04-25T21:57:12.100Z,58.60
2019-04-25T21:59:43.757Z,72.25
2019-04-25T22:02:15.509Z,77.70
2019-04-25T22:04:47.093Z,83.17
2019-04-25T22:07:20.053Z,82.97
2019-04-25T22:09:51.782Z,93.78
2019-04-25T22:12:23.566Z,86.60
2019-04-25T22:14:55.861Z,93.50
2019-04-25T22:17:27.499Z,98.62
2019-04-25T22:19:59.757Z,93.40
2019-04-25T22:22:31.629Z,95.53
2019-04-25T22:25:03.389Z,90.42
2019-04-25T22:27:36.790Z,89.92
2019-04-25T22:30:09.982Z,77.37
2019-04-25T22:32:52.795Z,63.85
2019-04-25T22:35:26.191Z,53.00
2019-04-25T22:38:00.040Z,61.20
2019-04-25T22:40:32.171Z,55.17
2019-04-25T22:43:04.531Z,66.05
2019-04-25T22:45:36.065Z,56.18
2019-04-25T22:48:09.071Z,54.73
2019-04-25T22:50:41.044Z,60.20
2019-04-25T22:53:21.780Z,57.77
2019-04-25T22:55:45.993Z,63.50
2019-04-25T22:58:17.340Z,50.70
2019-04-25T23:00:48.586Z,53.00
2019-04-25T23:03:23.707Z,59.03
2019-04-25T23:05:56.822Z,56.10
2019-04-25T23:08:28.296Z,60.67
2019-04-25T23:10:59.928Z,59.48
2019-04-25T23:13:31.359Z,58.28
2019-04-25T23:16:04.096Z,47.27
2019-04-25T23:18:36.213Z,54.05
2019-04-25T23:21:08.547Z,55.17
2019-04-25T23:23:40.867Z,52.83
2019-04-25T23:26:22.878Z,52.15
2019-04-25T23:28:56.646Z,54.03
2019-04-25T23:31:32.322Z,47.98
2019-04-25T23:34:04.537Z,48.70
2019-04-25T23:36:37.270Z,49.53
2019-04-25T23:39:09.393Z,44.57
2019-04-25T23:41:41.194Z,47.93
2019-04-25T23:44:12.747Z,43.13
2019-04-25T23:46:44.487Z,45.95
2019-04-25T23:49:16.818Z,43.17
2019-04-25T23:51:48.417Z,44.07
2019-04-25T23:54:19.758Z,38.02
2019-04-25T23:56:51.333Z,41.23
2019-04-25T23:59:22.684Z,41.60
